Clyde, NC (28721)

8:10 AM EDT on August 28, 2016 (GMT -0400)
RAWS | | Change Station

Elev 5291 ft 35.65 °N, 82.91 °W | Updated 1 hour ago

Overcast
Overcast
54.0 °F
Feels Like 54.0 °F
N
0.0
Wind Variable Wind from North
Gusts 0.0 mph

Today
High -- | Low -- °F
--% Chance of Precip.
Yesterday
High -- | Low -- °F
Precip. -- in
Pressure 30.21 in
Visibility 10.0 miles
Clouds Mostly Cloudy 2200 ft
Overcast 2800 ft
Dew Point 54.0 °F
Humidity 100%
Rainfall in
Snow Depth Not available.
7:01 AM 8:03 PM
Waning Crescent, 16% visible
METAR KAVL 281154Z 00000KT 10SM BKN022 OVC028 20/18 A3028 RMK AO2 SLP228 T02000183 10206 20189 53014
Pressure 30.21 in
Visibility 10.0 miles
Clouds Mostly Cloudy 2200 ft
Overcast 2800 ft
Dew Point 54.0 °F
Humidity 100%
Rainfall in
Snow Depth Not available.
7:01 AM 8:03 PM
Waning Crescent, 16% visible
METAR KAVL 281154Z 00000KT 10SM BKN022 OVC028 20/18 A3028 RMK AO2 SLP228 T02000183 10206 20189 53014

10-Day Weather Forecast

Almanac

Astronomy

Aug. 28, 2016 Rise Set
Actual Time
Civil Twilight
Nautical Twilight
Astronomical Twilight
Moon
Length of Visible Light
Length of Day
Tomorrow will be .
, % of the Moon is Illuminated

Today's Extremes

State Highs State Lows

Community

WunderPhotos

Upload Photos

1,935,552 photos uploaded!

WunderBlog® & News

Nearby

Air Quality

  Air Quality AQ Index Pollutant
Not available.

Snow Depth

Station Depth Elevation

Earthquake Activity

City Distance Mag. Time & Date
Minimum magnitude displayed is 2.5.

Coastal Water Temperatures

Place Temperature

Stations

Nearby Weather Stations

Station Location Temp. Windchill Dew Point Humidity Wind Precip. Elev Updated Type
                   

Watches & Warnings

There are currently no watches in effect.